createdAt,value
2017-09-24T00:02:14.737Z,95.40
2017-09-24T00:04:42.839Z,95.30
2017-09-24T00:07:10.968Z,94.90
2017-09-24T00:09:39.073Z,95.20
2017-09-24T00:12:07.420Z,95.40
2017-09-24T00:14:35.543Z,95.30
2017-09-24T00:17:04.675Z,95.20
2017-09-24T00:19:33.904Z,95.20
2017-09-24T00:22:02.776Z,95.00
2017-09-24T00:24:30.915Z,95.00
2017-09-24T00:26:59.028Z,95.00
2017-09-24T00:29:27.135Z,94.90
2017-09-24T00:31:55.232Z,95.30
2017-09-24T00:34:23.334Z,94.90
2017-09-24T00:36:51.466Z,95.10
2017-09-24T00:39:19.775Z,95.10
2017-09-24T00:41:47.894Z,95.00
2017-09-24T00:44:15.987Z,94.80
2017-09-24T00:46:45.949Z,94.90
2017-09-24T00:49:14.067Z,94.70
2017-09-24T00:51:42.180Z,95.00
2017-09-24T00:54:10.302Z,94.80
2017-09-24T00:56:38.439Z,94.80
2017-09-24T00:59:06.511Z,95.00
2017-09-24T01:01:34.626Z,94.40
2017-09-24T01:04:02.715Z,94.80
2017-09-24T01:06:30.900Z,95.00
2017-09-24T01:08:59.190Z,95.00
2017-09-24T01:11:27.335Z,94.80
2017-09-24T01:13:55.535Z,95.00
2017-09-24T01:16:23.650Z,95.00
2017-09-24T01:18:51.935Z,94.90
2017-09-24T01:21:20.238Z,95.10
2017-09-24T01:23:48.336Z,95.10
2017-09-24T01:26:16.449Z,94.80
2017-09-24T01:28:44.791Z,94.90
2017-09-24T01:31:13.137Z,94.30
2017-09-24T01:33:41.256Z,94.70
2017-09-24T01:36:09.350Z,94.70
2017-09-24T01:38:38.497Z,94.50
2017-09-24T01:41:06.761Z,95.00
2017-09-24T01:43:34.847Z,95.10
2017-09-24T01:46:02.963Z,95.10
2017-09-24T01:48:31.072Z,95.00
2017-09-24T01:50:59.447Z,95.00
2017-09-24T01:53:27.538Z,95.00
2017-09-24T01:55:55.736Z,95.20
2017-09-24T01:58:24.596Z,95.20
2017-09-24T02:00:53.961Z,95.20
2017-09-24T02:03:22.650Z,94.70
2017-09-24T02:05:51.019Z,94.90
2017-09-24T02:08:19.231Z,95.20
2017-09-24T02:10:47.367Z,95.00
2017-09-24T02:13:15.475Z,95.00
2017-09-24T02:15:43.602Z,95.20
2017-09-24T02:18:11.695Z,95.30
2017-09-24T02:20:39.811Z,95.00
2017-09-24T02:23:07.918Z,94.90
2017-09-24T02:25:36.010Z,94.40
2017-09-24T02:28:04.155Z,94.40
2017-09-24T02:30:32.252Z,95.10
2017-09-24T02:33:00.364Z,95.30
2017-09-24T02:35:28.811Z,95.40
2017-09-24T02:37:56.949Z,95.70
2017-09-24T02:40:25.804Z,95.40
2017-09-24T02:42:53.933Z,95.40
2017-09-24T02:45:22.036Z,95.40
2017-09-24T02:47:50.119Z,95.00
2017-09-24T02:50:18.217Z,94.90
2017-09-24T02:52:47.091Z,94.70
2017-09-24T02:55:15.208Z,94.70
2017-09-24T02:57:43.335Z,94.80
2017-09-24T03:00:11.421Z,95.00
2017-09-24T03:02:39.546Z,95.00
2017-09-24T03:05:07.642Z,95.20
2017-09-24T03:07:35.747Z,95.10
2017-09-24T03:10:04.595Z,94.90
2017-09-24T03:12:32.712Z,94.80
2017-09-24T03:15:01.580Z,94.70
2017-09-24T03:17:29.902Z,94.70
2017-09-24T03:19:58.200Z,95.10
2017-09-24T03:22:28.223Z,95.20
2017-09-24T03:24:56.335Z,95.20
2017-09-24T03:27:24.433Z,95.10
2017-09-24T03:29:52.544Z,95.20
2017-09-24T03:32:20.634Z,95.10
2017-09-24T03:34:48.720Z,95.00
2017-09-24T03:37:19.348Z,95.20
2017-09-24T03:39:47.487Z,95.10
2017-09-24T03:42:15.592Z,95.30
2017-09-24T03:44:43.711Z,95.00
2017-09-24T03:47:11.829Z,95.30
2017-09-24T03:49:39.924Z,95.10
2017-09-24T03:52:09.036Z,95.00
2017-09-24T03:54:37.959Z,95.00
2017-09-24T03:57:06.072Z,95.20
2017-09-24T03:59:34.199Z,95.10
2017-09-24T04:02:02.282Z,95.10
2017-09-24T04:04:30.571Z,95.30
2017-09-24T04:06:58.665Z,95.30
2017-09-24T04:09:26.771Z,95.40
2017-09-24T04:11:54.896Z,95.00
2017-09-24T04:14:22.985Z,95.10
2017-09-24T04:16:51.071Z,95.60
2017-09-24T04:19:19.399Z,95.60
2017-09-24T04:21:47.484Z,96.00
2017-09-24T04:24:15.755Z,95.80
2017-09-24T04:26:43.843Z,95.70
2017-09-24T04:29:12.878Z,95.70
2017-09-24T04:31:40.998Z,95.60
2017-09-24T04:34:10.135Z,95.60
2017-09-24T04:36:39.064Z,95.10
2017-09-24T04:39:07.128Z,95.10
2017-09-24T04:41:35.275Z,94.90
2017-09-24T04:44:03.381Z,95.10
2017-09-24T04:46:31.472Z,95.40
2017-09-24T04:49:00.619Z,95.50
2017-09-24T04:51:28.703Z,95.20
2017-09-24T04:53:56.788Z,95.00
2017-09-24T04:56:24.927Z,95.40
2017-09-24T04:58:53.041Z,95.60
2017-09-24T05:01:21.192Z,95.60
2017-09-24T05:03:49.295Z,95.60
2017-09-24T05:06:17.399Z,95.40
2017-09-24T05:08:45.524Z,95.50
2017-09-24T05:11:13.610Z,96.00
2017-09-24T05:13:41.719Z,95.80
2017-09-24T05:16:09.804Z,96.40
2017-09-24T05:18:38.670Z,96.10
2017-09-24T05:21:06.743Z,96.00
2017-09-24T05:23:34.834Z,95.90
2017-09-24T05:26:03.596Z,96.00
2017-09-24T05:28:32.667Z,95.80
2017-09-24T05:31:04.740Z,96.20
2017-09-24T05:33:36.815Z,96.30
2017-09-24T05:36:05.360Z,96.30
2017-09-24T05:38:33.740Z,95.80
2017-09-24T05:41:01.970Z,95.70
2017-09-24T05:43:30.052Z,95.90
2017-09-24T05:45:58.223Z,95.80
2017-09-24T05:48:26.334Z,95.80
2017-09-24T05:50:54.448Z,95.70
2017-09-24T05:53:22.851Z,95.60
2017-09-24T05:55:50.973Z,95.50
2017-09-24T05:58:19.089Z,95.00
2017-09-24T06:00:47.192Z,95.60
2017-09-24T06:03:16.940Z,95.50
2017-09-24T06:05:45.043Z,95.50
2017-09-24T06:08:14.656Z,95.70
2017-09-24T06:10:42.764Z,95.70
2017-09-24T06:13:11.903Z,95.90
2017-09-24T06:15:39.999Z,95.90
2017-09-24T06:18:08.122Z,96.10
2017-09-24T06:20:36.212Z,96.50
2017-09-24T06:23:04.822Z,96.30
2017-09-24T06:25:33.165Z,96.20
2017-09-24T06:28:01.244Z,96.50
2017-09-24T06:30:29.343Z,96.40
2017-09-24T06:32:57.476Z,96.30
2017-09-24T06:35:25.588Z,95.90
2017-09-24T06:37:53.818Z,95.80
2017-09-24T06:40:21.933Z,95.80
2017-09-24T06:42:51.567Z,95.80
2017-09-24T06:45:20.720Z,95.70
2017-09-24T06:47:50.948Z,96.00
2017-09-24T06:50:19.033Z,95.90
2017-09-24T06:52:47.161Z,96.00
2017-09-24T06:55:15.436Z,96.10
2017-09-24T06:57:43.556Z,95.90
2017-09-24T07:00:11.934Z,96.00
2017-09-24T07:02:40.036Z,95.90
2017-09-24T07:05:08.932Z,95.90
2017-09-24T07:07:37.784Z,95.80
2017-09-24T07:10:05.924Z,95.70
2017-09-24T07:12:34.027Z,95.70
2017-09-24T07:15:02.111Z,95.80
2017-09-24T07:17:30.244Z,95.60
2017-09-24T07:19:58.346Z,95.50
2017-09-24T07:22:26.605Z,95.70
2017-09-24T07:24:54.708Z,96.20
2017-09-24T07:27:22.819Z,96.00
2017-09-24T07:29:50.940Z,96.10
2017-09-24T07:32:19.079Z,95.90
2017-09-24T07:34:47.292Z,95.70
2017-09-24T07:37:15.391Z,95.60
2017-09-24T07:39:44.299Z,95.80
2017-09-24T07:42:12.490Z,95.70
2017-09-24T07:44:40.595Z,95.80
2017-09-24T07:47:08.931Z,95.90
2017-09-24T07:49:38.004Z,95.80
2017-09-24T07:52:06.680Z,95.90
2017-09-24T07:54:34.788Z,96.10
2017-09-24T07:57:02.916Z,95.70
2017-09-24T07:59:31.910Z,95.90
2017-09-24T08:02:00.216Z,95.90
2017-09-24T08:04:29.010Z,96.00
2017-09-24T08:06:57.188Z,96.10
2017-09-24T08:09:25.365Z,96.30
2017-09-24T08:11:53.751Z,96.20
2017-09-24T08:14:21.873Z,96.30
2017-09-24T08:16:49.963Z,96.40
2017-09-24T08:19:18.065Z,96.50
2017-09-24T08:21:46.184Z,96.30
2017-09-24T08:24:14.365Z,96.30
2017-09-24T08:26:43.042Z,96.30
2017-09-24T08:29:12.045Z,96.20
2017-09-24T08:31:41.112Z,96.10
2017-09-24T08:34:09.227Z,96.10
2017-09-24T08:36:37.400Z,95.90
2017-09-24T08:39:05.497Z,95.90
2017-09-24T08:41:33.649Z,96.10
2017-09-24T08:44:02.737Z,96.20
2017-09-24T08:46:31.723Z,96.20
2017-09-24T08:48:59.824Z,96.40
2017-09-24T08:51:28.916Z,96.60
2017-09-24T08:53:57.808Z,96.60
2017-09-24T08:56:26.032Z,96.60
2017-09-24T08:58:54.183Z,96.60
2017-09-24T09:01:22.285Z,96.50
2017-09-24T09:03:52.328Z,96.60
2017-09-24T09:06:20.437Z,96.80
2017-09-24T09:08:48.535Z,97.00
2017-09-24T09:11:16.666Z,96.90
2017-09-24T09:13:46.437Z,96.90
2017-09-24T09:16:14.539Z,97.00
2017-09-24T09:18:43.065Z,97.10
2017-09-24T09:21:11.245Z,96.90
2017-09-24T09:23:39.375Z,96.90
2017-09-24T09:26:08.592Z,97.20
2017-09-24T09:28:36.917Z,97.20
2017-09-24T09:31:05.512Z,97.00
2017-09-24T09:33:35.024Z,97.10
2017-09-24T09:36:03.673Z,96.90
2017-09-24T09:38:32.592Z,96.70
2017-09-24T09:41:00.908Z,97.00
2017-09-24T09:43:45.826Z,96.40
2017-09-24T09:46:38.054Z,96.70
2017-09-24T09:49:06.353Z,96.20
2017-09-24T09:51:34.488Z,95.80
2017-09-24T09:54:02.615Z,96.10
2017-09-24T09:56:30.804Z,95.70
2017-09-24T09:58:59.949Z,96.00
2017-09-24T10:01:28.662Z,95.60
2017-09-24T10:03:56.896Z,95.50
2017-09-24T10:09:51.434Z,95.50
2017-09-24T10:12:20.635Z,95.90
2017-09-24T10:14:49.509Z,95.50
2017-09-24T10:17:17.700Z,95.40
2017-09-24T10:19:46.434Z,95.10
2017-09-24T10:22:15.654Z,95.00
2017-09-24T10:24:43.855Z,94.70
2017-09-24T10:27:12.601Z,94.80
2017-09-24T10:29:40.916Z,94.50
2017-09-24T10:32:09.059Z,94.60
2017-09-24T10:34:37.235Z,94.10
2017-09-24T10:37:06.167Z,93.80
2017-09-24T10:39:34.266Z,93.50
2017-09-24T10:42:02.587Z,93.00
2017-09-24T10:44:30.719Z,93.10
2017-09-24T10:47:00.767Z,92.50
2017-09-24T10:49:29.088Z,92.50
2017-09-24T10:51:58.558Z,92.60
2017-09-24T10:54:26.932Z,92.50
2017-09-24T10:56:55.054Z,92.00
2017-09-24T10:59:24.320Z,91.90
2017-09-24T11:01:52.591Z,91.70
2017-09-24T11:04:21.487Z,91.70
2017-09-24T11:06:50.460Z,91.10
2017-09-24T11:09:18.604Z,91.80
2017-09-24T11:11:46.988Z,91.40
2017-09-24T11:14:15.994Z,91.40
2017-09-24T11:16:44.127Z,91.50
2017-09-24T11:19:13.688Z,91.30
2017-09-24T11:21:41.890Z,91.20
2017-09-24T11:24:10.106Z,90.70
2017-09-24T11:26:39.031Z,91.40
2017-09-24T11:29:07.295Z,91.40
2017-09-24T11:31:35.407Z,90.50
2017-09-24T11:34:03.613Z,90.50
2017-09-24T11:36:31.719Z,90.30
2017-09-24T11:38:59.833Z,90.40
2017-09-24T11:41:28.945Z,90.50
2017-09-24T11:43:57.093Z,90.10
2017-09-24T11:46:25.219Z,89.20
2017-09-24T11:48:53.355Z,90.00
2017-09-24T11:51:21.499Z,88.20
2017-09-24T11:53:49.641Z,89.20
2017-09-24T11:56:17.800Z,90.00
2017-09-24T11:58:46.714Z,88.40
2017-09-24T12:01:14.830Z,88.40
2017-09-24T12:06:53.023Z,87.70
2017-09-24T12:09:21.163Z,88.20
2017-09-24T12:14:50.538Z,86.00
2017-09-24T12:17:18.789Z,88.10
2017-09-24T12:19:46.883Z,88.50
2017-09-24T12:22:15.027Z,88.60
2017-09-24T12:24:43.170Z,88.20
2017-09-24T12:27:12.109Z,85.10
2017-09-24T12:29:40.258Z,85.10
2017-09-24T12:32:08.768Z,86.20
2017-09-24T12:34:37.259Z,81.90
2017-09-24T12:37:05.421Z,75.90
2017-09-24T12:39:33.587Z,76.10
2017-09-24T12:42:01.812Z,81.10
2017-09-24T12:44:29.925Z,81.20
2017-09-24T12:46:59.230Z,78.20
2017-09-24T12:49:27.383Z,68.80
2017-09-24T12:51:55.560Z,69.30
2017-09-24T12:54:23.755Z,66.00
2017-09-24T12:56:51.871Z,72.50
2017-09-24T12:59:20.008Z,70.40
2017-09-24T13:01:48.485Z,73.30
2017-09-24T13:04:16.989Z,72.50
2017-09-24T13:06:45.601Z,76.20
2017-09-24T13:09:15.249Z,79.50
2017-09-24T13:11:44.178Z,79.30
2017-09-24T13:14:12.410Z,77.20
2017-09-24T13:16:40.626Z,75.80
2017-09-24T13:19:08.699Z,76.40
2017-09-24T13:21:36.812Z,78.80
2017-09-24T13:24:04.942Z,80.30
2017-09-24T13:26:33.075Z,74.30
2017-09-24T13:29:01.994Z,73.30
2017-09-24T13:31:30.076Z,73.30
2017-09-24T13:33:58.219Z,74.20
2017-09-24T13:36:26.345Z,72.80
2017-09-24T13:38:54.606Z,73.60
2017-09-24T13:41:22.762Z,74.90
2017-09-24T13:43:50.894Z,72.00
2017-09-24T13:46:19.899Z,74.50
2017-09-24T13:48:48.820Z,74.40
2017-09-24T13:51:17.679Z,74.70
2017-09-24T13:53:46.628Z,72.60
2017-09-24T13:56:14.835Z,72.60
2017-09-24T13:58:43.770Z,77.30
2017-09-24T14:01:11.863Z,77.20
2017-09-24T14:03:40.656Z,75.00
2017-09-24T14:06:08.733Z,75.40
2017-09-24T14:08:36.840Z,74.80
2017-09-24T14:11:06.029Z,75.00
2017-09-24T14:13:34.111Z,76.30
2017-09-24T14:16:03.396Z,75.70
2017-09-24T14:18:31.482Z,72.60
2017-09-24T14:20:59.601Z,70.20
2017-09-24T14:23:28.375Z,70.20
2017-09-24T14:25:57.255Z,75.80
2017-09-24T14:28:25.350Z,75.00
2017-09-24T14:30:53.428Z,74.80
2017-09-24T14:33:21.544Z,74.60
2017-09-24T14:35:51.295Z,76.30
2017-09-24T14:38:19.420Z,76.20
2017-09-24T14:40:48.535Z,76.60
2017-09-24T14:43:17.403Z,77.40
2017-09-24T14:45:45.510Z,77.40
2017-09-24T14:48:13.646Z,78.20
2017-09-24T14:50:41.779Z,77.60
2017-09-24T14:53:10.059Z,77.20
2017-09-24T14:55:38.161Z,75.90
2017-09-24T14:58:06.265Z,74.80
2017-09-24T15:00:35.164Z,75.20
2017-09-24T15:03:03.259Z,75.10
2017-09-24T15:05:31.385Z,74.90
2017-09-24T15:07:59.484Z,75.50
2017-09-24T15:10:27.613Z,76.10
2017-09-24T15:12:55.752Z,77.20
2017-09-24T15:15:23.854Z,75.00
2017-09-24T15:17:51.981Z,75.80
2017-09-24T15:20:20.092Z,74.10
2017-09-24T15:22:48.196Z,74.40
2017-09-24T15:25:16.304Z,75.20
2017-09-24T15:27:44.447Z,74.00
2017-09-24T15:30:13.532Z,75.30
2017-09-24T15:32:41.616Z,75.30
2017-09-24T15:35:10.760Z,75.90
2017-09-24T15:37:38.886Z,75.80
2017-09-24T15:40:07.006Z,75.20
2017-09-24T15:42:35.123Z,76.60
2017-09-24T15:45:03.218Z,77.10
2017-09-24T15:47:31.320Z,78.90
2017-09-24T15:49:59.447Z,78.60
2017-09-24T15:52:28.323Z,76.90
2017-09-24T15:54:56.426Z,76.60
2017-09-24T15:57:24.569Z,77.90
2017-09-24T15:59:52.697Z,77.90
2017-09-24T16:02:20.811Z,78.90
2017-09-24T16:04:48.934Z,77.50
2017-09-24T16:07:17.069Z,79.10
2017-09-24T16:09:45.231Z,78.30
2017-09-24T16:12:13.329Z,78.40
2017-09-24T16:14:43.247Z,78.40
2017-09-24T16:17:11.361Z,78.40
2017-09-24T16:19:39.459Z,77.90
2017-09-24T16:22:07.551Z,80.40
2017-09-24T16:24:36.439Z,80.30
2017-09-24T16:27:04.579Z,80.30
2017-09-24T16:29:32.751Z,80.20
2017-09-24T16:32:01.367Z,79.50
2017-09-24T16:34:30.270Z,81.10
2017-09-24T16:36:59.228Z,81.40
2017-09-24T16:39:27.354Z,81.40
2017-09-24T16:41:55.461Z,80.80
2017-09-24T16:44:23.583Z,79.70
2017-09-24T16:46:51.668Z,81.60
2017-09-24T16:49:20.000Z,82.00
2017-09-24T16:51:48.093Z,82.40
2017-09-24T16:54:16.183Z,83.10
2017-09-24T16:56:44.350Z,85.50
2017-09-24T16:59:13.452Z,85.30
2017-09-24T17:01:42.323Z,85.50
2017-09-24T17:04:10.468Z,85.50
2017-09-24T17:06:39.720Z,86.70
2017-09-24T17:09:08.597Z,87.90
2017-09-24T17:11:36.900Z,87.90
2017-09-24T17:14:06.315Z,88.70
2017-09-24T17:16:34.716Z,90.00
2017-09-24T17:19:02.827Z,90.00
2017-09-24T17:21:30.921Z,90.50
2017-09-24T17:23:59.044Z,90.20
2017-09-24T17:26:27.211Z,90.70
2017-09-24T17:28:55.299Z,90.40
2017-09-24T17:31:23.398Z,90.80
2017-09-24T17:33:52.316Z,91.50
2017-09-24T17:36:20.571Z,91.50
2017-09-24T17:38:51.059Z,92.00
2017-09-24T17:41:19.258Z,92.00
2017-09-24T17:43:47.463Z,92.30
2017-09-24T17:46:15.860Z,92.40
2017-09-24T17:48:44.055Z,92.80
2017-09-24T17:51:12.212Z,93.10
2017-09-24T17:53:40.318Z,92.90
2017-09-24T17:56:08.418Z,93.00
2017-09-24T17:58:36.632Z,92.50
2017-09-24T18:01:04.758Z,92.50
2017-09-24T18:03:34.340Z,92.60
2017-09-24T18:06:02.637Z,93.40
2017-09-24T18:08:31.368Z,93.40
2017-09-24T18:10:59.653Z,93.30
2017-09-24T18:13:27.813Z,93.40
2017-09-24T18:15:56.668Z,93.70
2017-09-24T18:18:26.791Z,93.70
2017-09-24T18:20:54.976Z,93.70
2017-09-24T18:23:23.995Z,93.60
2017-09-24T18:25:52.109Z,93.60
2017-09-24T18:28:20.337Z,93.70
2017-09-24T18:30:48.509Z,94.10
2017-09-24T18:33:16.597Z,94.00
2017-09-24T18:35:44.760Z,93.90
2017-09-24T18:38:12.939Z,94.10
2017-09-24T18:40:41.222Z,93.80
2017-09-24T18:43:09.352Z,93.80
2017-09-24T18:45:37.894Z,93.90
2017-09-24T18:48:06.127Z,94.10
2017-09-24T18:50:34.287Z,94.30
2017-09-24T18:53:02.516Z,94.30
2017-09-24T18:55:31.209Z,94.40
2017-09-24T18:57:59.551Z,94.30
2017-09-24T19:00:27.839Z,94.40
2017-09-24T19:02:56.102Z,94.40
2017-09-24T19:05:24.477Z,94.50
2017-09-24T19:07:52.630Z,94.20
2017-09-24T19:10:21.018Z,94.20
2017-09-24T19:12:49.529Z,94.20
2017-09-24T19:15:18.058Z,94.10
2017-09-24T19:17:47.221Z,94.40
2017-09-24T19:20:15.612Z,94.40
2017-09-24T19:23:11.514Z,94.10
2017-09-24T19:25:50.721Z,93.90
2017-09-24T19:28:19.140Z,94.00
2017-09-24T19:30:47.386Z,94.00
2017-09-24T19:36:17.782Z,93.90
2017-09-24T19:38:46.104Z,94.10
2017-09-24T19:41:14.299Z,94.50
2017-09-24T19:43:42.627Z,94.40
2017-09-24T19:46:10.865Z,94.30
2017-09-24T19:48:39.237Z,94.20
2017-09-24T19:51:07.536Z,94.50
2017-09-24T19:53:35.866Z,93.90
2017-09-24T19:56:04.090Z,94.20
2017-09-24T19:58:32.375Z,94.30
2017-09-24T20:01:00.574Z,94.30
2017-09-24T20:03:29.508Z,94.70
2017-09-24T20:05:58.485Z,94.30
2017-09-24T20:08:26.631Z,94.30
2017-09-24T20:10:54.875Z,94.80
2017-09-24T20:13:23.111Z,94.70
2017-09-24T20:15:51.553Z,94.30
2017-09-24T20:18:19.727Z,94.30
2017-09-24T20:20:47.854Z,94.70
2017-09-24T20:23:15.972Z,94.50
2017-09-24T20:25:44.097Z,94.50
2017-09-24T20:28:12.209Z,94.20
2017-09-24T20:30:40.350Z,94.00
2017-09-24T20:33:08.542Z,94.30
2017-09-24T20:35:37.783Z,94.30
2017-09-24T20:38:05.971Z,94.50
2017-09-24T20:40:34.903Z,94.30
2017-09-24T20:43:02.994Z,94.30
2017-09-24T20:45:31.111Z,94.40
2017-09-24T20:47:59.204Z,94.30
2017-09-24T20:50:27.335Z,94.10
2017-09-24T20:52:55.436Z,94.30
2017-09-24T20:55:23.535Z,94.20
2017-09-24T20:57:51.886Z,94.20
2017-09-24T21:00:19.987Z,94.20
2017-09-24T21:02:48.243Z,94.30
2017-09-24T21:05:16.410Z,94.60
2017-09-24T21:07:44.499Z,94.60
2017-09-24T21:10:12.615Z,94.60
2017-09-24T21:12:41.477Z,94.50
2017-09-24T21:15:09.589Z,94.50
2017-09-24T21:17:37.796Z,94.70
2017-09-24T21:20:05.931Z,94.70
2017-09-24T21:22:34.097Z,94.50
2017-09-24T21:25:02.340Z,94.40
2017-09-24T21:27:30.663Z,94.50
2017-09-24T21:29:59.588Z,94.50
2017-09-24T21:32:27.713Z,94.50
2017-09-24T21:34:55.852Z,94.60
2017-09-24T21:37:23.984Z,94.60
2017-09-24T21:39:52.919Z,94.20
2017-09-24T21:42:21.281Z,94.20
2017-09-24T21:44:49.368Z,94.10
2017-09-24T21:47:17.471Z,94.40
2017-09-24T21:49:45.575Z,94.20
2017-09-24T21:52:13.671Z,94.20
2017-09-24T21:54:41.788Z,94.00
2017-09-24T21:57:09.871Z,94.20
2017-09-24T21:59:37.951Z,94.00
2017-09-24T22:02:06.075Z,94.10
2017-09-24T22:04:34.200Z,94.40
2017-09-24T22:07:03.106Z,94.50
2017-09-24T22:09:31.188Z,94.50
2017-09-24T22:11:59.366Z,94.50
2017-09-24T22:14:27.477Z,94.90
2017-09-24T22:16:55.659Z,94.90
2017-09-24T22:19:23.788Z,94.80
2017-09-24T22:21:51.908Z,95.00
2017-09-24T22:24:20.042Z,94.80
2017-09-24T22:26:48.141Z,95.10
2017-09-24T22:29:16.236Z,95.00
2017-09-24T22:31:44.352Z,95.00
2017-09-24T22:34:13.368Z,95.10
2017-09-24T22:36:41.479Z,95.10
2017-09-24T22:39:10.366Z,94.90
2017-09-24T22:41:39.248Z,94.80
2017-09-24T22:44:07.358Z,95.10
2017-09-24T22:46:35.473Z,95.30
2017-09-24T22:49:03.582Z,95.30
2017-09-24T22:51:32.452Z,95.40
2017-09-24T22:54:00.543Z,95.40
2017-09-24T22:56:28.666Z,95.30
2017-09-24T22:58:56.787Z,95.20
2017-09-24T23:01:25.636Z,95.30
2017-09-24T23:03:53.739Z,95.30
2017-09-24T23:06:21.819Z,95.50
2017-09-24T23:08:49.918Z,95.40
2017-09-24T23:11:18.019Z,95.30
2017-09-24T23:13:46.116Z,95.30
2017-09-24T23:16:14.200Z,95.50
2017-09-24T23:18:42.347Z,95.30
2017-09-24T23:21:10.495Z,95.60
2017-09-24T23:23:38.608Z,95.50
2017-09-24T23:26:06.731Z,95.50
2017-09-24T23:28:34.847Z,95.60
2017-09-24T23:31:02.927Z,95.60
2017-09-24T23:33:31.058Z,95.60
2017-09-24T23:35:59.166Z,95.60
2017-09-24T23:38:27.291Z,95.50
2017-09-24T23:40:55.703Z,95.50
2017-09-24T23:43:23.818Z,95.30
2017-09-24T23:45:51.919Z,95.50
2017-09-24T23:48:20.008Z,95.50
2017-09-24T23:50:49.186Z,95.60
2017-09-24T23:53:17.274Z,95.60
2017-09-24T23:55:45.391Z,95.50
2017-09-24T23:58:13.496Z,95.40
